createdAt,value
2023-04-19T00:02:13.893Z,6.20
2023-04-19T00:04:40.843Z,6.65
2023-04-19T00:07:08.520Z,6.50
2023-04-19T00:09:35.315Z,6.65
2023-04-19T00:12:02.903Z,7.72
2023-04-19T00:14:29.618Z,7.00
2023-04-19T00:16:56.460Z,6.35
2023-04-19T00:19:23.285Z,5.82
2023-04-19T00:21:50.074Z,6.68
2023-04-19T00:24:17.548Z,6.38
2023-04-19T00:26:44.231Z,6.45
2023-04-19T00:29:11.371Z,6.78
2023-04-19T00:31:39.793Z,7.68
2023-04-19T00:34:09.608Z,7.28
2023-04-19T00:36:37.586Z,7.35
2023-04-19T00:39:04.585Z,6.15
2023-04-19T00:41:31.306Z,6.65
2023-04-19T00:43:58.065Z,7.97
2023-04-19T00:46:25.418Z,7.20
2023-04-19T00:48:52.305Z,7.20
2023-04-19T00:51:19.819Z,7.07
2023-04-19T00:53:46.967Z,6.78
2023-04-19T00:56:15.631Z,6.53
2023-04-19T00:58:42.464Z,7.00
2023-04-19T01:01:09.602Z,6.90
2023-04-19T01:03:36.806Z,7.78
2023-04-19T01:06:03.971Z,6.30
2023-04-19T01:08:30.761Z,6.70
2023-04-19T01:10:57.632Z,6.78
2023-04-19T01:13:24.998Z,5.90
2023-04-19T01:15:51.926Z,6.05
2023-04-19T01:18:24.505Z,6.25
2023-04-19T01:20:51.858Z,6.07
2023-04-19T01:23:18.630Z,5.55
2023-04-19T01:25:46.228Z,6.32
2023-04-19T01:28:13.115Z,5.65
2023-04-19T01:30:39.975Z,6.55
2023-04-19T01:33:06.941Z,6.03
2023-04-19T01:35:33.887Z,5.68
2023-04-19T01:38:01.029Z,5.63
2023-04-19T01:40:27.912Z,6.75
2023-04-19T01:42:54.742Z,5.35
2023-04-19T01:45:21.531Z,5.95
2023-04-19T01:47:51.678Z,5.40
2023-04-19T01:50:18.550Z,5.20
2023-04-19T01:52:45.503Z,5.55
2023-04-19T01:55:12.302Z,5.57
2023-04-19T01:57:39.010Z,5.32
2023-04-19T02:00:06.635Z,5.28
2023-04-19T02:02:41.852Z,4.97
2023-04-19T02:05:09.215Z,6.28
2023-04-19T02:07:36.076Z,4.72
2023-04-19T02:10:03.314Z,4.82
2023-04-19T02:12:31.054Z,4.70
2023-04-19T02:14:59.451Z,5.00
2023-04-19T02:17:32.464Z,4.73
2023-04-19T02:20:00.513Z,4.47
2023-04-19T02:22:27.442Z,4.90
2023-04-19T02:24:54.233Z,4.47
2023-04-19T02:27:27.268Z,5.22
2023-04-19T02:29:54.744Z,5.07
2023-04-19T02:32:21.772Z,6.05
2023-04-19T02:34:48.634Z,5.55
2023-04-19T02:37:15.372Z,6.03
2023-04-19T02:39:42.631Z,7.20
2023-04-19T02:42:09.391Z,7.95
2023-04-19T02:44:36.313Z,8.80
2023-04-19T02:47:03.106Z,8.90
2023-04-19T02:49:34.616Z,10.70
2023-04-19T02:52:01.862Z,9.95
2023-04-19T02:54:28.997Z,10.75
2023-04-19T02:56:57.521Z,12.00
2023-04-19T02:59:24.281Z,10.38
2023-04-19T03:01:51.612Z,10.77
2023-04-19T03:04:19.083Z,11.35
2023-04-19T03:06:46.084Z,11.27
2023-04-19T03:09:13.594Z,10.95
2023-04-19T03:11:40.326Z,10.00
2023-04-19T03:14:07.115Z,9.57
2023-04-19T03:16:33.913Z,10.93
2023-04-19T03:19:01.178Z,11.48
2023-04-19T03:21:33.035Z,11.77
2023-04-19T03:24:00.085Z,14.88
2023-04-19T03:26:27.233Z,13.57
2023-04-19T03:28:56.456Z,13.93
2023-04-19T03:31:35.700Z,15.23
2023-04-19T03:34:04.220Z,15.93
2023-04-19T03:36:39.360Z,16.73
2023-04-19T03:39:06.329Z,17.05
2023-04-19T03:41:33.685Z,16.58
2023-04-19T03:44:19.687Z,16.00
2023-04-19T03:46:48.680Z,15.93
2023-04-19T03:49:18.995Z,14.70
2023-04-19T03:51:50.714Z,15.82
2023-04-19T03:54:17.734Z,14.65
2023-04-19T03:56:44.655Z,13.35
2023-04-19T03:59:11.871Z,12.82
2023-04-19T04:01:42.222Z,13.30
2023-04-19T04:04:11.383Z,15.10
2023-04-19T04:06:39.833Z,12.50
2023-04-19T04:09:07.540Z,14.18
2023-04-19T04:11:34.726Z,13.20
2023-04-19T04:14:01.747Z,12.25
2023-04-19T04:16:32.326Z,12.80
2023-04-19T04:18:59.473Z,13.50
2023-04-19T04:21:28.165Z,13.68
2023-04-19T04:23:58.662Z,14.27
2023-04-19T04:26:39.299Z,13.43
2023-04-19T04:29:29.017Z,12.38
2023-04-19T04:31:58.601Z,16.27
2023-04-19T04:34:31.259Z,15.90
2023-04-19T04:37:05.751Z,13.63
2023-04-19T04:39:35.060Z,13.65
2023-04-19T04:42:02.434Z,12.68
2023-04-19T04:44:29.423Z,15.70
2023-04-19T04:46:56.281Z,13.75
2023-04-19T04:49:26.709Z,13.43
2023-04-19T04:51:53.429Z,13.30
2023-04-19T04:54:21.399Z,13.70
2023-04-19T04:56:48.826Z,14.45
2023-04-19T04:59:15.904Z,15.00
2023-04-19T05:01:45.293Z,13.18
2023-04-19T05:04:13.291Z,11.35
2023-04-19T05:06:41.186Z,11.15
2023-04-19T05:09:09.895Z,10.43
2023-04-19T05:11:36.770Z,11.85
2023-04-19T05:14:04.479Z,10.38
2023-04-19T05:16:33.196Z,8.98
2023-04-19T05:19:00.622Z,10.27
2023-04-19T05:21:30.958Z,9.48
2023-04-19T05:23:57.656Z,9.43
2023-04-19T05:26:25.472Z,9.30
2023-04-19T05:28:53.750Z,12.00
2023-04-19T05:31:43.989Z,9.38
2023-04-19T05:34:27.172Z,8.98
2023-04-19T05:36:56.092Z,9.15
2023-04-19T05:39:22.883Z,7.95
2023-04-19T05:41:49.848Z,6.85
2023-04-19T05:44:16.896Z,9.30
2023-04-19T05:46:43.939Z,8.65
2023-04-19T05:49:13.399Z,9.48
2023-04-19T05:52:01.323Z,9.77
2023-04-19T05:54:38.709Z,8.60
2023-04-19T05:57:05.792Z,8.52
2023-04-19T05:59:32.817Z,9.90
2023-04-19T06:02:01.228Z,9.00
2023-04-19T06:04:28.387Z,8.85
2023-04-19T06:06:55.336Z,10.85
2023-04-19T06:09:22.392Z,10.65
2023-04-19T06:11:51.552Z,9.73
2023-04-19T06:14:19.289Z,10.80
2023-04-19T06:16:46.517Z,10.57
2023-04-19T06:19:13.589Z,9.88
2023-04-19T06:21:40.757Z,9.95
2023-04-19T06:24:07.954Z,10.27
2023-04-19T06:26:34.811Z,10.05
2023-04-19T06:29:01.660Z,9.75
2023-04-19T06:31:28.624Z,8.55
2023-04-19T06:33:55.407Z,7.72
2023-04-19T06:36:22.233Z,10.05
2023-04-19T06:38:49.974Z,7.78
2023-04-19T06:41:16.919Z,8.43
2023-04-19T06:43:44.841Z,7.20
2023-04-19T06:46:13.845Z,7.82
2023-04-19T06:48:40.918Z,8.73
2023-04-19T06:51:07.887Z,6.40
2023-04-19T06:53:35.598Z,6.45
2023-04-19T06:56:04.430Z,7.28
2023-04-19T06:58:34.508Z,7.13
2023-04-19T07:01:03.882Z,6.78
2023-04-19T07:03:30.761Z,8.07
2023-04-19T07:05:57.544Z,6.80
2023-04-19T07:08:32.253Z,6.85
2023-04-19T07:11:05.803Z,7.70
2023-04-19T07:13:32.558Z,8.70
2023-04-19T07:15:59.551Z,7.75
2023-04-19T07:18:26.322Z,5.78
2023-04-19T07:20:53.058Z,6.50
2023-04-19T07:23:19.871Z,8.27
2023-04-19T07:25:46.584Z,5.55
2023-04-19T07:28:13.408Z,5.53
2023-04-19T07:30:40.219Z,5.97
2023-04-19T07:33:08.722Z,5.40
2023-04-19T07:35:35.840Z,6.32
2023-04-19T07:38:02.915Z,6.05
2023-04-19T07:40:29.819Z,5.93
2023-04-19T07:42:57.004Z,5.60
2023-04-19T07:45:23.826Z,5.30
2023-04-19T07:47:50.802Z,5.28
2023-04-19T07:50:17.969Z,4.65
2023-04-19T07:52:44.754Z,4.85
2023-04-19T07:55:11.576Z,4.05
2023-04-19T07:57:38.349Z,4.88
2023-04-19T08:00:05.644Z,4.53
2023-04-19T08:02:45.941Z,3.90
2023-04-19T08:05:14.621Z,5.57
2023-04-19T08:07:41.394Z,5.78
2023-04-19T08:10:08.910Z,5.72
2023-04-19T08:12:42.680Z,6.70
2023-04-19T08:15:32.911Z,10.75
2023-04-19T08:17:58.907Z,12.32
2023-04-19T08:20:26.796Z,13.52
2023-04-19T08:22:54.271Z,13.70
2023-04-19T08:25:21.360Z,13.43
2023-04-19T08:27:48.142Z,13.95
2023-04-19T08:30:15.084Z,11.40
2023-04-19T08:32:41.909Z,8.75
2023-04-19T08:35:09.244Z,9.25
2023-04-19T08:37:36.098Z,8.15
2023-04-19T08:40:03.892Z,6.53
2023-04-19T08:42:36.301Z,5.43
2023-04-19T08:47:52.095Z,6.00
2023-04-19T08:50:33.252Z,4.80
2023-04-19T08:53:16.242Z,5.65
2023-04-19T08:56:06.969Z,3.72
2023-04-19T09:01:07.040Z,2.40
2023-04-19T09:03:41.191Z,2.95
2023-04-19T09:06:14.811Z,2.58
2023-04-19T09:08:41.919Z,3.47
2023-04-19T09:11:09.119Z,2.92
2023-04-19T09:13:40.539Z,2.22
2023-04-19T09:16:10.179Z,2.78
2023-04-19T09:19:02.650Z,2.83
2023-04-19T09:21:39.408Z,1.40
2023-04-19T09:24:06.758Z,1.70
2023-04-19T09:26:34.277Z,2.53
2023-04-19T09:29:07.898Z,1.67
2023-04-19T09:34:19.624Z,2.08
2023-04-19T09:36:46.955Z,3.15
2023-04-19T09:39:14.951Z,1.50
2023-04-19T09:41:55.062Z,2.30
2023-04-19T09:44:58.768Z,2.70
2023-04-19T09:47:23.639Z,1.38
2023-04-19T09:50:18.806Z,2.35
2023-04-19T09:52:50.254Z,1.50
2023-04-19T09:57:48.578Z,1.67
2023-04-19T10:00:16.082Z,1.48
2023-04-19T10:02:44.984Z,1.33
2023-04-19T10:05:20.478Z,1.45
2023-04-19T10:07:49.997Z,1.55
2023-04-19T10:10:22.463Z,1.50
2023-04-19T10:15:31.503Z,1.42
2023-04-19T10:18:07.803Z,1.63
2023-04-19T10:20:46.723Z,1.63
2023-04-19T10:23:13.791Z,1.20
2023-04-19T10:25:40.922Z,1.52
2023-04-19T10:28:07.685Z,1.77
2023-04-19T10:30:34.565Z,1.27
2023-04-19T10:33:03.771Z,1.67
2023-04-19T10:35:38.184Z,1.17
2023-04-19T10:38:09.133Z,2.08
2023-04-19T10:40:56.143Z,1.00
2023-04-19T10:43:25.182Z,1.10
2023-04-19T10:45:52.429Z,1.00
2023-04-19T10:48:33.084Z,1.75
2023-04-19T10:51:04.148Z,1.13
2023-04-19T10:53:49.200Z,2.80
2023-04-19T10:56:18.544Z,1.55
2023-04-19T10:59:13.159Z,1.13
2023-04-19T11:04:13.087Z,1.40
2023-04-19T11:06:54.648Z,1.13
2023-04-19T11:09:25.196Z,1.50
2023-04-19T11:12:04.487Z,1.10
2023-04-19T11:14:34.320Z,1.15
2023-04-19T11:17:04.538Z,1.00
2023-04-19T11:19:31.536Z,1.10
2023-04-19T11:21:59.790Z,1.40
2023-04-19T11:24:26.676Z,1.15
2023-04-19T11:26:57.032Z,0.90
2023-04-19T11:29:23.879Z,1.00
2023-04-19T11:31:50.810Z,1.10
2023-04-19T11:34:19.657Z,1.15
2023-04-19T11:36:53.834Z,1.05
2023-04-19T11:41:48.597Z,1.15
2023-04-19T11:44:22.305Z,0.90
2023-04-19T11:47:00.285Z,1.50
2023-04-19T11:49:34.128Z,1.17
2023-04-19T11:52:05.293Z,1.10
2023-04-19T11:54:32.794Z,1.17
2023-04-19T11:56:59.569Z,1.67
2023-04-19T11:59:26.342Z,1.70
2023-04-19T12:01:53.138Z,1.40
2023-04-19T12:04:21.863Z,1.50
2023-04-19T12:06:58.600Z,1.75
2023-04-19T12:09:25.602Z,1.65
2023-04-19T12:11:52.863Z,1.77
2023-04-19T12:14:22.731Z,1.33
2023-04-19T12:17:22.126Z,1.10
2023-04-19T12:19:48.926Z,1.25
2023-04-19T12:22:20.312Z,1.33
2023-04-19T12:24:50.963Z,1.70
2023-04-19T12:27:18.290Z,1.40
2023-04-19T12:29:46.065Z,2.70
2023-04-19T12:32:14.763Z,2.40
2023-04-19T12:34:41.921Z,2.97
2023-04-19T12:37:08.680Z,2.40
2023-04-19T12:39:35.567Z,1.42
2023-04-19T12:42:02.396Z,1.10
2023-04-19T12:44:29.168Z,1.55
2023-04-19T12:46:57.747Z,1.92
2023-04-19T12:49:24.773Z,2.25
2023-04-19T12:51:51.646Z,2.90
2023-04-19T12:54:18.467Z,2.25
2023-04-19T12:56:45.257Z,1.58
2023-04-19T12:59:12.026Z,2.05
2023-04-19T13:01:38.965Z,1.55
2023-04-19T13:04:08.704Z,2.47
2023-04-19T13:06:36.312Z,2.65
2023-04-19T13:09:11.345Z,15.48
2023-04-19T13:11:40.952Z,12.45
2023-04-19T13:14:07.799Z,3.67
2023-04-19T13:16:34.535Z,2.13
2023-04-19T13:19:01.429Z,2.15
2023-04-19T13:21:28.342Z,2.13
2023-04-19T13:23:55.699Z,2.20
2023-04-19T13:26:22.541Z,1.63
2023-04-19T13:28:49.370Z,1.95
2023-04-19T13:31:16.247Z,1.60
2023-04-19T13:33:43.082Z,2.58
2023-04-19T13:36:09.857Z,1.88
2023-04-19T13:38:36.584Z,2.78
2023-04-19T13:41:03.985Z,2.42
2023-04-19T13:43:30.721Z,4.55
2023-04-19T13:45:57.445Z,2.40
2023-04-19T13:48:27.089Z,3.30
2023-04-19T13:50:54.847Z,3.08
2023-04-19T13:53:21.844Z,2.33
2023-04-19T13:55:48.899Z,3.42
2023-04-19T13:58:15.862Z,4.22
2023-04-19T14:00:42.703Z,2.65
2023-04-19T14:03:09.764Z,3.33
2023-04-19T14:05:36.657Z,2.72
2023-04-19T14:08:03.608Z,2.83
2023-04-19T14:10:30.446Z,3.45
2023-04-19T14:12:57.393Z,3.92
2023-04-19T14:15:25.501Z,2.38
2023-04-19T14:17:52.648Z,2.00
2023-04-19T14:20:19.470Z,3.58
2023-04-19T14:22:46.661Z,2.25
2023-04-19T14:25:15.244Z,2.50
2023-04-19T14:27:41.964Z,2.22
2023-04-19T14:30:09.729Z,3.10
2023-04-19T14:32:37.160Z,2.70
2023-04-19T14:35:04.153Z,1.92
2023-04-19T14:37:30.918Z,1.67
2023-04-19T14:39:57.712Z,1.60
2023-04-19T14:42:24.483Z,2.05
2023-04-19T14:44:52.217Z,3.17
2023-04-19T14:47:19.512Z,2.33
2023-04-19T14:49:46.368Z,2.35
2023-04-19T14:52:13.154Z,2.58
2023-04-19T14:54:39.869Z,1.88
2023-04-19T14:57:06.673Z,2.08
2023-04-19T14:59:34.064Z,2.05
2023-04-19T15:02:00.842Z,1.73
2023-04-19T15:04:27.748Z,2.30
2023-04-19T15:06:54.594Z,3.53
2023-04-19T15:09:21.541Z,2.08
2023-04-19T15:11:48.306Z,1.73
2023-04-19T15:14:15.175Z,1.40
2023-04-19T15:16:42.390Z,1.23
2023-04-19T15:19:09.196Z,2.75
2023-04-19T15:21:36.127Z,3.17
2023-04-19T15:24:03.622Z,1.38
2023-04-19T15:26:30.514Z,2.55
2023-04-19T15:28:57.690Z,3.08
2023-04-19T15:31:25.388Z,2.92
2023-04-19T15:33:52.523Z,1.83
2023-04-19T15:36:19.344Z,2.25
2023-04-19T15:38:46.177Z,2.03
2023-04-19T15:41:13.072Z,2.78
2023-04-19T15:43:39.788Z,2.30
2023-04-19T15:46:06.572Z,2.20
2023-04-19T15:48:33.356Z,3.03
2023-04-19T15:51:01.307Z,2.92
2023-04-19T15:53:28.841Z,3.65
2023-04-19T15:55:56.310Z,2.28
2023-04-19T15:58:24.107Z,2.65
2023-04-19T16:00:51.252Z,2.97
2023-04-19T16:03:18.064Z,4.20
2023-04-19T16:05:44.898Z,3.40
2023-04-19T16:08:11.909Z,2.70
2023-04-19T16:10:39.391Z,2.00
2023-04-19T16:13:06.379Z,2.35
2023-04-19T16:15:33.193Z,2.60
2023-04-19T16:17:59.957Z,4.07
2023-04-19T16:20:26.944Z,4.07
2023-04-19T16:22:53.798Z,2.42
2023-04-19T16:25:20.721Z,2.75
2023-04-19T16:27:47.540Z,4.18
2023-04-19T16:30:16.233Z,4.63
2023-04-19T16:32:43.413Z,2.35
2023-04-19T16:35:10.403Z,2.88
2023-04-19T16:37:37.155Z,3.63
2023-04-19T16:40:08.380Z,4.35
2023-04-19T16:42:38.854Z,2.60
2023-04-19T16:45:07.280Z,2.42
2023-04-19T16:47:34.983Z,2.80
2023-04-19T16:50:02.513Z,2.53
2023-04-19T16:52:31.807Z,3.72
2023-04-19T16:54:58.729Z,2.97
2023-04-19T16:57:25.871Z,2.30
2023-04-19T16:59:52.588Z,2.20
2023-04-19T17:02:19.595Z,1.98
2023-04-19T17:04:46.930Z,3.60
2023-04-19T17:07:13.810Z,2.72
2023-04-19T17:09:40.719Z,3.03
2023-04-19T17:12:07.718Z,7.43
2023-04-19T17:14:35.536Z,2.88
2023-04-19T17:17:02.400Z,3.15
2023-04-19T17:19:29.159Z,3.40
2023-04-19T17:21:56.017Z,2.00
2023-04-19T17:24:22.864Z,2.40
2023-04-19T17:26:50.166Z,2.20
2023-04-19T17:29:17.377Z,1.40
2023-04-19T17:31:44.349Z,1.48
2023-04-19T17:34:12.353Z,1.63
2023-04-19T17:36:39.106Z,2.55
2023-04-19T17:39:06.711Z,1.38
2023-04-19T17:41:34.039Z,1.40
2023-04-19T17:44:00.850Z,2.05
2023-04-19T17:46:27.648Z,1.60
2023-04-19T17:48:55.455Z,1.83
2023-04-19T17:51:22.321Z,2.58
2023-04-19T17:53:49.092Z,3.13
2023-04-19T17:56:15.992Z,1.65
2023-04-19T17:58:42.756Z,1.50
2023-04-19T18:01:10.452Z,2.47
2023-04-19T18:03:37.971Z,1.90
2023-04-19T18:06:05.197Z,2.38
2023-04-19T18:08:31.945Z,2.03
2023-04-19T18:10:58.721Z,4.13
2023-04-19T18:13:25.726Z,2.00
2023-04-19T18:15:52.503Z,1.60
2023-04-19T18:18:19.399Z,2.13
2023-04-19T18:20:46.251Z,1.55
2023-04-19T18:23:13.090Z,2.05
2023-04-19T18:25:39.922Z,2.05
2023-04-19T18:28:06.883Z,2.60
2023-04-19T18:30:33.772Z,2.00
2023-04-19T18:33:00.784Z,1.67
2023-04-19T18:35:27.597Z,2.13
2023-04-19T18:37:54.311Z,2.58
2023-04-19T18:40:21.172Z,2.70
2023-04-19T18:42:47.995Z,3.20
2023-04-19T18:45:14.909Z,3.80
2023-04-19T18:47:41.923Z,4.10
2023-04-19T18:50:09.321Z,3.45
2023-04-19T18:52:36.690Z,3.30
2023-04-19T18:55:04.960Z,5.57
2023-04-19T18:57:34.608Z,3.20
2023-04-19T19:00:05.584Z,3.45
2023-04-19T19:02:34.534Z,3.15
2023-04-19T19:05:02.218Z,2.67
2023-04-19T19:10:02.456Z,4.15
2023-04-19T19:12:32.604Z,3.95
2023-04-19T19:14:59.385Z,4.15
2023-04-19T19:17:28.072Z,4.13
2023-04-19T19:19:55.320Z,3.25
2023-04-19T19:22:27.595Z,3.15
2023-04-19T19:24:55.501Z,2.95
2023-04-19T19:27:22.295Z,2.67
2023-04-19T19:29:49.164Z,2.63
2023-04-19T19:32:16.086Z,3.00
2023-04-19T19:34:53.988Z,2.78
2023-04-19T19:37:22.083Z,3.10
2023-04-19T19:39:49.101Z,2.67
2023-04-19T19:42:16.835Z,2.50
2023-04-19T19:44:43.708Z,3.95
2023-04-19T19:47:11.213Z,3.13
2023-04-19T19:52:08.079Z,3.03
2023-04-19T19:54:34.945Z,2.63
2023-04-19T19:59:34.858Z,3.25
2023-04-19T20:02:03.383Z,2.30
2023-04-19T20:04:31.674Z,2.35
2023-04-19T20:09:28.614Z,2.22
2023-04-19T20:11:55.465Z,2.33
2023-04-19T20:14:23.740Z,2.10
2023-04-19T20:16:50.928Z,1.92
2023-04-19T20:19:18.403Z,2.08
2023-04-19T20:21:46.974Z,3.28
2023-04-19T20:24:14.174Z,2.60
2023-04-19T20:26:41.247Z,2.33
2023-04-19T20:29:07.979Z,3.58
2023-04-19T20:31:35.124Z,2.60
2023-04-19T20:34:01.904Z,3.70
2023-04-19T20:36:31.609Z,2.50
2023-04-19T20:38:58.784Z,2.42
2023-04-19T20:41:26.951Z,2.70
2023-04-19T20:43:56.945Z,2.67
2023-04-19T20:46:23.791Z,4.25
2023-04-19T20:48:50.542Z,2.25
2023-04-19T20:51:17.656Z,2.30
2023-04-19T20:53:44.559Z,2.28
2023-04-19T20:56:11.388Z,2.28
2023-04-19T20:58:39.374Z,2.13
2023-04-19T21:01:06.220Z,2.47
2023-04-19T21:03:33.412Z,2.00
2023-04-19T21:06:00.282Z,2.40
2023-04-19T21:08:27.026Z,3.38
2023-04-19T21:10:53.791Z,2.03
2023-04-19T21:13:20.507Z,2.20
2023-04-19T21:15:47.293Z,2.40
2023-04-19T21:18:14.083Z,2.72
2023-04-19T21:20:40.874Z,3.03
2023-04-19T21:23:07.596Z,2.10
2023-04-19T21:25:34.418Z,4.05
2023-04-19T21:28:01.257Z,2.33
2023-04-19T21:30:28.082Z,2.80
2023-04-19T21:32:54.927Z,2.80
2023-04-19T21:35:21.774Z,3.05
2023-04-19T21:37:48.554Z,3.65
2023-04-19T21:40:15.377Z,3.20
2023-04-19T21:42:42.233Z,3.55
2023-04-19T21:45:09.405Z,3.97
2023-04-19T21:47:36.284Z,4.20
2023-04-19T21:50:03.632Z,3.28
2023-04-19T21:52:30.529Z,3.13
2023-04-19T21:54:57.506Z,3.10
2023-04-19T21:57:25.189Z,5.32
2023-04-19T21:59:51.995Z,7.22
2023-04-19T22:02:19.296Z,3.92
2023-04-19T22:04:46.070Z,6.13
2023-04-19T22:07:12.772Z,4.80
2023-04-19T22:09:39.786Z,5.28
2023-04-19T22:12:06.811Z,6.13
2023-04-19T22:14:33.668Z,5.00
2023-04-19T22:17:02.724Z,4.88
2023-04-19T22:19:29.753Z,3.83
2023-04-19T22:21:56.814Z,5.85
2023-04-19T22:24:23.959Z,4.05
2023-04-19T22:26:51.036Z,4.85
2023-04-19T22:29:18.437Z,5.20
2023-04-19T22:31:45.368Z,3.28
2023-04-19T22:34:12.968Z,3.72
2023-04-19T22:36:39.669Z,3.13
2023-04-19T22:39:06.404Z,4.05
2023-04-19T22:41:33.421Z,4.72
2023-04-19T22:44:00.389Z,3.72
2023-04-19T22:46:27.661Z,4.28
2023-04-19T22:48:56.049Z,4.43
2023-04-19T22:51:24.172Z,3.80
2023-04-19T22:53:51.151Z,3.85
2023-04-19T22:56:17.908Z,3.05
2023-04-19T22:58:44.694Z,4.80
2023-04-19T23:01:11.545Z,3.90
2023-04-19T23:03:38.308Z,3.17
2023-04-19T23:06:05.245Z,3.28
2023-04-19T23:08:33.389Z,3.83
2023-04-19T23:11:00.361Z,3.90
2023-04-19T23:13:27.077Z,4.40
2023-04-19T23:15:54.462Z,2.97
2023-04-19T23:18:21.367Z,3.95
2023-04-19T23:20:48.223Z,4.40
2023-04-19T23:23:15.085Z,5.43
2023-04-19T23:25:42.258Z,3.88
2023-04-19T23:28:11.069Z,4.93
2023-04-19T23:30:39.159Z,3.58
2023-04-19T23:33:06.047Z,4.85
2023-04-19T23:35:32.901Z,3.90
2023-04-19T23:37:59.845Z,2.88
2023-04-19T23:40:26.575Z,4.13
2023-04-19T23:42:53.290Z,4.05
2023-04-19T23:45:20.330Z,3.13
2023-04-19T23:47:47.163Z,3.67
2023-04-19T23:50:13.956Z,2.92
2023-04-19T23:52:40.935Z,3.40
2023-04-19T23:55:08.029Z,4.97
2023-04-19T23:57:35.725Z,3.95
